Latest Coastal Weather Observations for Sydney Airport

IDN60701

Issued at 6:41 am EST Tuesday 28 April 2015 (issued every 10 minutes, with the page automatically refreshed every 10 minutes)

About coastal observations | Map of coastal stations | Coastal observations for NSW | Marine services | Other Formats
Station Details ID: 066037 Name: SYDNEY AIRPORT AMO Lat: -33.95 Lon: 151.17 Height: 6.0 m
Data from the previous 72 hours. | See also: Recent months at Sydney Airport
Date/Time
EST
Temp

°C
Wind Pressure Rain
since 9am
mm
Weather Cloud Vis
km
Sea
Height
m
Swell
Dir
 
Speed
knots
Gust
knots
hPa Trend Height
m
Period
s
Dir
28/06:30am 11.2 NW 8 11 1024.6 - 0.0 - Mostly clear 10 - - - -
28/06:00am 10.9 NW 9 10 1024.1 R 0.0 Distant precip. Partly cloudy 30 - - - -
28/05:30am 11.0 NW 7 8 1023.7 - 0.0 - Mostly clear 10 - - - -
28/05:00am 10.9 NW 7 8 1023.4 - 0.0 - Mostly clear 10 - - - -
28/04:30am 11.2 NW 7 7 1023.1 - 0.0 - Mostly clear 10 - - - -
28/04:00am 11.5 NW 7 7 1022.8 - 0.0 - Mostly clear 10 - - - -
28/03:00am 12.5 W 7 9 1022.4 R 0.0 Fine Mostly cloudy 30 - - - -
28/02:30am 12.6 WSW 9 11 1022.4 - 0.0 - Mostly clear 10 - - - -
28/02:00am 13.3 WSW 10 12 1022.5 - 0.0 - Mostly clear 10 - - - -
28/01:30am 13.0 W 7 9 1022.5 - 0.0 - Mostly clear 10 - - - -
28/01:00am 13.0 NNW 6 7 1022.4 - 0.0 - Mostly clear 10 - - - -
28/12:30am 12.8 NW 5 6 1022.6 - 0.0 - Mostly clear 10 - - - -
 
Date/Time
EST
Temp

°C
Wind Pressure Rain
since 9am
mm
Weather Cloud Vis
km
Sea
Height
m
Swell
Dir
 
Speed
knots
Gust
knots
hPa Trend Height
m
Period
s
Dir
27/11:30pm 13.4 NW 7 7 1022.7 - 0.0 - Mostly clear 10 - - - -
27/11:00pm 14.2 NNW 6 7 1022.6 - 0.0 - Mostly clear 10 - - - -
27/10:30pm 14.3 WNW 7 12 1022.6 - 0.0 - Mostly clear 10 - - - -
27/10:00pm 14.5 WNW 9 10 1022.5 - 0.0 - Mostly clear 10 - - - -
27/09:30pm 15.1 WNW 8 10 1022.4 - 0.0 - Mostly clear 10 - - - -
27/09:00pm 15.5 SW 10 12 1022.2 R 0.0 Fine Mostly cloudy 30 - - - -
27/08:30pm 17.3 S 12 15 1021.7 - 0.0 - Mostly clear 10 - - - -
27/08:00pm 16.9 S 13 17 1021.4 - 0.0 - Mostly clear 10 - - - -
27/07:30pm 16.8 S 12 17 1021.0 - 0.0 - Mostly clear 10 - - - -
27/07:00pm 17.0 S 13 16 1020.7 - 0.0 - Mostly clear 10 - - - -
27/06:30pm 17.1 S 13 17 1020.3 - 0.0 - Mostly clear 10 - - - -
27/06:00pm 16.8 S 12 23 1019.9 R 0.0 Fine Mostly clear 30 - - - -
27/05:30pm 16.8 S 11 14 1019.7 - 0.0 - Mostly clear 10 - - - -
27/05:00pm 17.1 S 15 17 1019.5 - 0.0 - - 10 - - - -
27/04:30pm 17.2 S 14 19 1019.3 - 0.0 - - 10 - - - -
27/04:00pm 17.4 S 15 18 1019.2 - 0.0 - - 10 - - - -
27/03:30pm 17.5 S 16 19 1019.2 - 0.0 - - 10 - - - -
27/03:00pm 17.8 S 16 20 1019.0 R 0.0 Fine Mostly clear 40 - - - -
27/02:30pm 18.0 S 15 19 1018.8 - 0.0 - - 10 - - - -
27/02:00pm 17.7 S 14 18 1018.7 - 0.0 - - 10 - - - -
27/01:30pm 18.0 S 15 19 1018.5 - 0.0 - - 10 - - - -
27/01:00pm 17.9 SSW 13 17 1018.5 - 0.0 - - 10 - - - -
27/12:30pm 17.7 SSW 15 18 1018.5 - 0.0 - - 10 - - - -
27/12:00pm 17.8 SSW 15 18 1018.7 R 0.0 Fine Mostly clear 50 - - - -
27/11:30am 17.9 SSW 12 17 1018.9 - 0.0 - - 10 - - - -
27/11:00am 17.8 SW 8 15 1019.1 - 0.0 - - 10 - - - -
27/10:30am 17.5 SW 7 11 1019.1 - 0.0 - Mostly clear 10 - - - -
27/10:00am 16.9 WSW 10 16 1019.1 - 0.0 - Mostly clear 10 - - - -
27/09:30am 16.3 WSW 11 14 1019.0 - 0.0 - Mostly clear 10 - - - -
27/09:00am 15.5 WSW 14 16 1018.9 R 3.8 Fine Mostly clear 50 - - - -
27/08:30am 15.1 WSW 11 17 1018.9 - 3.8 - Mostly clear 10 - - - -
27/08:00am 14.3 WSW 13 17 1018.7 - 3.8 - Mostly clear 10 - - - -
27/07:30am 13.8 WSW 14 17 1018.4 - 3.8 - Mostly clear 10 - - - -
27/07:00am 13.2 WSW 13 18 1017.9 - 3.8 - Mostly clear 10 - - - -
27/06:30am 12.8 W 11 15 1017.5 - 3.8 - Mostly clear 10 - - - -
27/06:00am 12.8 WSW 11 16 1017.3 R 3.8 Fine Mostly clear 50 - - - -
27/05:30am 12.8 WSW 10 14 1017.0 - 3.8 - Mostly clear 10 - - - -
27/05:00am 13.2 WSW 14 16 1016.7 - 3.8 - - 10 - - - -
27/04:30am 13.3 W 13 15 1016.4 - 3.8 - Mostly clear 10 - - - -
27/04:00am 13.3 W 11 13 1016.1 - 3.8 - Mostly clear 10 - - - -
27/03:30am 13.9 WSW 11 14 1015.9 - 3.8 - Mostly clear 10 - - - -
27/03:00am 14.8 SW 14 17 1015.7 R 3.8 Fine Mostly clear 25 - - - -
27/02:30am 14.8 WSW 10 14 1015.6 - 3.8 - Mostly clear 10 - - - -
27/02:00am 15.1 SW 9 11 1015.6 - 3.8 - Mostly clear 10 - - - -
27/01:30am 15.3 SW 11 14 1015.5 - 3.8 - Mostly clear 10 - - - -
27/01:00am 15.7 SSW 14 17 1015.4 - 3.8 - Mostly clear 10 - - - -
27/12:30am 15.7 SW 10 14 1015.4 - 3.8 - Mostly clear 10 - - - -
27/12:00am 15.4 W 6 7 1015.3 R 3.8 Distant precip. Mostly cloudy 22 - - - -
 
Date/Time
EST
Temp

°C
Wind Pressure Rain
since 9am
mm
Weather Cloud Vis
km
Sea
Height
m
Swell
Dir
 
Speed
knots
Gust
knots
hPa Trend Height
m
Period
s
Dir
26/11:30pm 15.5 W 6 6 1015.2 - 3.8 - Mostly clear 10 - - - -
26/11:00pm 15.5 WNW 6 7 1015.0 - 3.8 - Mostly clear 10 - - - -
26/10:30pm 15.4 NW 6 7 1015.1 - 3.8 - Mostly clear 10 - - - -
26/10:00pm 15.4 W 6 8 1015.1 - 3.8 - Mostly clear 10 - - - -
26/09:30pm 15.3 WSW 7 11 1015.0 - 3.8 - Mostly clear 10 - - - -
26/09:00pm 16.2 SW 11 14 1014.9 R 3.8 Distant precip. Partly cloudy 25 - - - -
26/08:30pm 16.4 SW 10 12 1014.6 - 3.8 - Mostly clear 10 - - - -
26/08:00pm 16.5 SW 11 14 1014.4 - 3.8 - Mostly clear 10 - - - -
26/07:30pm 16.9 SSW 12 14 1014.2 - 3.8 - Mostly clear 10 - - - -
26/07:00pm 17.0 SSW 14 16 1013.9 - 3.8 - Mostly clear 10 - - - -
26/06:30pm 17.0 SW 15 18 1013.6 - 3.8 - Mostly clear 10 - - - -
26/06:08pm 16.9 SW 15 26 1013.2 - 3.8 - Mostly clear 10 - - - -
26/06:00pm 17.0 SW 13 16 1013.0 R 3.8 Distant precip. Partly cloudy 25 - - - -
26/05:30pm 17.2 SSW 9 13 1012.5 - 3.8 - Mostly clear 10 - - - -
26/05:00pm 17.2 SSW 8 9 1011.9 - 3.8 - Mostly clear 10 - - - -
26/04:30pm 17.2 SW 11 15 1011.4 - 3.8 - Mostly clear 10 - - - -
26/04:00pm 17.0 SW 16 20 1011.2 - 3.8 - Mostly clear 10 - - - -
26/03:30pm 16.9 SW 17 22 1010.9 - 3.4 Showers Mostly clear 9 - - - -
26/03:00pm 16.6 SW 18 23 1010.5 R 3.4 Showers Mostly cloudy 25 - - - -
26/02:30pm 15.8 SW 17 21 1010.0 - 3.4 Rain Mostly clear 10 - - - -
26/02:00pm 15.4 SW 18 21 1009.4 - 3.4 - Mostly clear 10 - - - -
26/01:30pm 15.1 SW 19 25 1009.0 - 3.0 Rain Mostly clear 10 - - - -
26/01:00pm 15.6 SW 20 25 1008.5 - 1.4 - Mostly clear 9 - - - -
26/12:30pm 16.0 SW 17 22 1008.2 - 0.6 Rain Mostly clear 9 - - - -
26/12:13pm 16.4 WSW 17 27 1008.0 - 0.2 Rain Partly cloudy 10 - - - -
26/12:00pm 16.4 WSW 17 22 1007.9 R 0.2 Distant precip. Mostly cloudy 20 - - - -
26/11:30am 15.8 WSW 16 20 1007.9 - 0.2 Rain Mostly clear 10 - - - -
26/11:00am 15.7 WSW 15 19 1008.0 - 0.2 - Mostly clear 10 - - - -
26/10:35am 15.4 WSW 15 25 1008.1 - 0.2 Rain Mostly clear 10 - - - -
26/10:30am 15.3 WSW 14 17 1008.1 - 0.2 Rain Mostly clear 10 - - - -
26/10:00am 14.6 W 16 20 1007.7 - 0.2 - Mostly clear 10 - - - -
26/09:30am 14.1 W 15 20 1007.7 - 0.2 Rain Mostly clear 10 - - - -
26/09:00am 13.9 W 11 15 1008.0 R 8.6 Rain Mostly cloudy 25 - - - -
26/08:30am 13.3 W 12 14 1008.0 - 8.6 Rain Mostly clear 10 - - - -
26/08:00am 13.6 W 11 14 1007.8 - 8.6 - Mostly clear 10 - - - -
26/07:30am 13.2 W 13 16 1007.3 - 8.6 - Mostly clear 10 - - - -
26/07:00am 12.9 WNW 11 13 1007.1 - 8.6 - Mostly clear 10 - - - -
26/06:30am 12.7 WNW 8 11 1006.9 - 8.6 - Mostly clear 10 - - - -
26/06:00am 13.0 W 11 14 1006.7 R 8.4 Distant precip. Mostly cloudy 30 - - - -
26/05:30am 13.0 WSW 15 18 1006.5 - 8.4 - - 10 - - - -
26/05:00am 13.2 WSW 15 20 1006.3 - 8.4 - - 10 - - - -
26/04:30am 13.2 W 15 17 1006.0 - 8.4 - - 10 - - - -
26/04:00am 13.4 WNW 9 12 1005.9 - 8.4 - Mostly clear 10 - - - -
26/03:30am 13.9 WNW 8 13 1006.2 - 8.4 - Mostly clear 10 - - - -
26/03:00am 14.4 SSW 9 12 1005.4 F 8.4 Recent precip. Cloudy 25 - - - -
26/02:30am 13.4 WNW 7 11 1006.7 - 8.4 Rain Mostly clear 10 - - - -
26/02:00am 13.8 NW 15 17 1007.4 - 8.2 - Partly cloudy 10 - - - -
26/01:30am 13.8 NW 13 17 1007.5 - 8.2 Rain Mostly clear 10 - - - -
26/01:00am 13.3 WNW 10 14 1007.3 - 8.2 - Mostly clear 10 - - - -
26/12:30am 13.4 WNW 12 16 1007.4 - 8.2 - Mostly clear 10 - - - -
26/12:00am 13.2 NW 9 13 1007.3 F 8.2 Fine Mostly cloudy 30 - - - -
 
Date/Time
EST
Temp

°C
Wind Pressure Rain
since 9am
mm
Weather Cloud Vis
km
Sea
Height
m
Swell
Dir
 
Speed
knots
Gust
knots
hPa Trend Height
m
Period
s
Dir
25/11:30pm 13.3 W 11 14 1006.9 - 8.2 - Mostly clear 10 - - - -
25/11:00pm 13.7 SSW 8 16 1006.8 - 8.2 - Mostly clear 10 - - - -
25/10:30pm 14.0 S 8 10 1007.2 - 8.2 - Mostly clear 10 - - - -
25/10:00pm 14.6 SSE 10 15 1007.9 - 8.2 - Mostly clear 10 - - - -
25/09:30pm 15.2 SW 12 14 1008.6 - 7.8 Thunder Partly cloudy 10 - - - -
25/09:00pm 14.9 SW 10 14 1008.2 R 7.8 Recent precip. Mostly cloudy 20 - - - -
25/08:30pm 15.0 SW 9 15 1008.7 - 7.8 - Mostly clear 10 - - - -
25/08:00pm 15.6 SSW 16 20 1006.9 - 7.8 - Mostly clear 10 - - - -
25/07:49pm 15.9 W 16 24 1008.3 - 7.4 Thunderstorm Mostly clear 9 - - - -
25/07:30pm 16.7 SW 10 14 1007.1 - 7.4 Thunder Mostly clear 10 - - - -
25/07:00pm 16.1 SW 13 16 1006.7 - 7.4 - Mostly clear 10 - - - -
25/06:30pm 16.1 E 8 10 1006.0 - 7.4 - Mostly clear 10 - - - -
25/06:00pm 15.5 ENE 7 10 1005.5 S 7.4 Recent th'storm Partly cloudy 25 - - - -
25/05:30pm 14.7 ENE 10 14 1005.1 - 7.4 Showers Mostly clear 10 - - - -
25/05:05pm 14.6 NE 14 18 1005.9 - 7.4 Thunderstorm Mostly clear 10 - - - -
25/05:00pm 14.8 N 11 18 1006.0 - 7.4 - Mostly clear 5 - - - -
25/04:37pm 18.3 SSW 12 17 1005.7 - 2.4 Thunderstorm Mostly clear 3 - - - -
25/04:30pm 18.1 SSW 13 18 1005.6 - 1.4 Thunderstorm Mostly clear 5 - - - -
25/04:23pm 18.8 SSE 10 15 1005.1 - 0.4 Thunderstorm Mostly clear 10 - - - -
25/04:00pm 20.9 ESE 10 13 1004.8 - 0.0 - Mostly clear 10 - - - -
25/03:30pm 21.3 ESE 11 14 1004.6 - 0.0 Thunderstorm Mostly clear 10 - - - -
25/03:00pm 21.7 ENE 12 15 1004.7 F 0.0 Distant precip. Partly cloudy 25 - - - -
25/02:30pm 23.3 E 11 13 1004.9 - 0.0 - Mostly clear 10 - - - -
25/02:00pm 23.4 E 9 12 1005.0 - 0.0 - Mostly clear 10 - - - -
25/01:30pm 23.4 ESE 8 10 1005.4 - 0.0 - - 10 - - - -
25/01:00pm 23.3 E 4 5 1005.8 - 0.0 - - 10 - - - -
25/12:30pm 22.6 ESE 5 7 1006.4 - 0.0 - - 10 - - - -
25/12:00pm 23.1 WNW 5 7 1006.9 F 0.0 Fine Mostly clear 30 - - - -
25/11:30am 23.2 NW 5 8 1007.2 - 0.0 - - 10 - - - -
25/11:00am 22.8 NW 7 10 1007.7 - 0.0 - - 10 - - - -
25/10:30am 21.7 NW 8 10 1007.9 - 0.0 - - 10 - - - -
25/10:00am 21.2 NW 7 10 1008.2 - 0.0 - - 10 - - - -
25/09:30am 19.6 NW 9 10 1008.6 - 0.0 - - 10 - - - -
25/09:00am 18.5 NW 9 10 1008.6 R 0.0 Fine Partly cloudy 30 - - - -
25/08:30am 17.4 NW 9 13 1008.6 - 0.0 - - 10 - - - -
25/08:00am 17.4 NNW 7 9 1008.4 - 0.0 - - 10 - - - -
25/07:30am 16.0 NNW 5 6 1008.2 - 0.0 - - 10 - - - -
25/07:00am 15.3 NW 5 5 1007.9 - 0.0 - - 10 - - - -

Other Formats:

Comma delimited format used in spreadsheet applications
http://www.bom.gov.au/fwo/IDN60701/IDN60701.94767.axf

JavaScript Object Notation format (JSON) in row-major order
http://www.bom.gov.au/fwo/IDN60701/IDN60701.94767.json